Time;durP1;ratioP1;P1;durP2;ratioP2;P2;SDS_P1;SDS_P2;PMS_P1;PMS_P2;Temp;Humidity;BMP_temperature;BMP_pressure;BME280_temperature;BME280_humidity;BME280_pressure;Samples;Min_cycle;Max_cycle;Signal;HPM_P1;HPM_P2
2023/04/17 00:00:05;;;;;;;14.60;10.85;;;;;;;;;;5083014;28;20154;-70
2023/04/17 00:02:32;;;;;;;18.63;13.20;;;;;;;;;;5067725;28;20574;-70
2023/04/17 00:04:58;;;;;;;21.10;15.02;;;;;;;;;;5058675;28;20075;-70
2023/04/17 00:07:27;;;;;;;23.48;16.75;;;;;;;;;;5067700;28;20052;-70
2023/04/17 00:09:53;;;;;;;20.50;13.90;;;;;;;;;;5065541;28;20037;-70
2023/04/17 00:12:19;;;;;;;20.55;13.27;;;;;;;;;;5064646;28;20040;-70
2023/04/17 00:14:49;;;;;;;21.42;15.65;;;;;;;;;;5055587;28;20036;-71
2023/04/17 00:17:15;;;;;;;22.52;15.98;;;;;;;;;;5032677;28;20124;-70
2023/04/17 00:19:41;;;;;;;19.65;14.27;;;;;;;;;;5066296;28;20040;-70
2023/04/17 00:22:07;;;;;;;19.65;14.07;;;;;;;;;;5068586;28;20094;-70
2023/04/17 00:24:33;;;;;;;18.30;13.10;;;;;;;;;;5069138;28;20123;-70
2023/04/17 00:27:00;;;;;;;16.60;11.80;;;;;;;;;;5052282;28;20503;-70
2023/04/17 00:29:26;;;;;;;18.45;13.32;;;;;;;;;;5052693;28;20043;-70
2023/04/17 00:31:52;;;;;;;14.02;10.68;;;;;;;;;;5057964;28;20040;-70
2023/04/17 00:34:18;;;;;;;17.52;12.10;;;;;;;;;;5085759;28;20044;-70
2023/04/17 00:36:44;;;;;;;14.50;10.85;;;;;;;;;;5089379;28;20113;-70
2023/04/17 00:39:10;;;;;;;17.20;13.15;;;;;;;;;;5084872;28;20052;-70
2023/04/17 00:41:36;;;;;;;15.07;10.60;;;;;;;;;;5083277;28;20122;-70
2023/04/17 00:44:02;;;;;;;17.77;12.45;;;;;;;;;;5085353;28;20093;-70
2023/04/17 00:46:28;;;;;;;16.60;11.70;;;;;;;;;;5089369;28;20380;-70
2023/04/17 00:48:54;;;;;;;17.23;12.25;;;;;;;;;;5072329;28;20036;-70
2023/04/17 00:51:21;;;;;;;16.35;12.25;;;;;;;;;;5088839;28;20059;-70
2023/04/17 00:53:47;;;;;;;17.33;11.85;;;;;;;;;;5089017;28;20054;-70
2023/04/17 00:56:13;;;;;;;17.40;12.18;;;;;;;;;;5067889;28;20498;-70
2023/04/17 00:58:39;;;;;;;16.45;11.60;;;;;;;;;;5072179;28;20052;-70
2023/04/17 01:01:05;;;;;;;14.40;10.38;;;;;;;;;;5068491;28;20052;-70
2023/04/17 01:03:32;;;;;;;16.75;11.40;;;;;;;;;;5056273;28;20075;-70
2023/04/17 01:05:58;;;;;;;16.05;10.70;;;;;;;;;;5088421;28;20041;-70
2023/04/17 01:08:24;;;;;;;16.10;11.77;;;;;;;;;;5077058;28;20384;-70
2023/04/17 01:10:50;;;;;;;16.73;12.43;;;;;;;;;;5082328;28;20082;-70
2023/04/17 01:13:16;;;;;;;21.75;13.95;;;;;;;;;;5068022;28;20147;-70
2023/04/17 01:15:43;;;;;;;21.25;14.07;;;;;;;;;;5059273;28;20127;-70
2023/04/17 01:18:10;;;;;;;16.10;12.40;;;;;;;;;;5073084;28;20076;-70
2023/04/17 01:20:36;;;;;;;16.83;12.07;;;;;;;;;;5082555;28;20058;-70
2023/04/17 01:23:02;;;;;;;17.38;12.43;;;;;;;;;;5092365;28;20483;-70
2023/04/17 01:25:28;;;;;;;18.45;12.90;;;;;;;;;;5093102;28;20434;-70
2023/04/17 01:27:55;;;;;;;17.85;12.70;;;;;;;;;;5092582;28;20048;-70
2023/04/17 01:30:21;;;;;;;17.75;12.68;;;;;;;;;;5086887;28;20120;-70
2023/04/17 01:32:47;;;;;;;20.80;13.80;;;;;;;;;;5089120;28;20073;-70
2023/04/17 01:35:13;;;;;;;18.92;14.38;;;;;;;;;;5081928;28;20048;-70
2023/04/17 01:37:39;;;;;;;20.80;14.75;;;;;;;;;;5092400;28;20048;-70
2023/04/17 01:40:06;;;;;;;20.10;13.38;;;;;;;;;;5126596;27;20047;-70
2023/04/17 01:42:35;;;;;;;19.77;14.27;;;;;;;;;;5092240;28;20086;-70
2023/04/17 01:45:01;;;;;;;17.10;12.00;;;;;;;;;;5092484;28;20123;-70
2023/04/17 01:47:27;;;;;;;18.58;12.93;;;;;;;;;;5083902;28;20052;-70
2023/04/17 01:49:53;;;;;;;18.60;11.88;;;;;;;;;;5084441;28;20480;-70
2023/04/17 01:52:19;;;;;;;18.23;12.57;;;;;;;;;;5072682;28;20105;-70
2023/04/17 01:54:45;;;;;;;17.70;12.38;;;;;;;;;;5121710;27;20129;-70
2023/04/17 01:57:12;;;;;;;15.82;11.20;;;;;;;;;;5106728;27;20048;-70
2023/04/17 01:59:38;;;;;;;14.55;9.40;;;;;;;;;;5074279;28;20040;-70
2023/04/17 02:02:04;;;;;;;16.50;11.27;;;;;;;;;;5107734;27;20044;-70
2023/04/17 02:04:30;;;;;;;16.70;11.57;;;;;;;;;;5072743;28;20048;-70
2023/04/17 02:06:56;;;;;;;17.20;12.13;;;;;;;;;;5104545;28;20068;-70
2023/04/17 02:09:22;;;;;;;19.50;14.63;;;;;;;;;;5070564;28;20515;-70
2023/04/17 02:11:48;;;;;;;23.10;15.02;;;;;;;;;;5070839;28;20040;-68
2023/04/17 02:14:15;;;;;;;16.70;11.90;;;;;;;;;;5054356;28;20044;-70
2023/04/17 02:16:44;;;;;;;;;;;;;;;;;;5078409;28;20097;-70
2023/04/17 02:19:10;;;;;;;17.30;12.13;;;;;;;;;;5072216;28;19920;-70
2023/04/17 02:21:36;;;;;;;12.60;9.57;;;;;;;;;;5075583;28;20460;-70
2023/04/17 02:24:02;;;;;;;17.42;12.57;;;;;;;;;;5069098;28;20098;-70
2023/04/17 02:26:28;;;;;;;15.32;11.15;;;;;;;;;;5070150;28;20046;-70
2023/04/17 02:28:54;;;;;;;13.93;10.27;;;;;;;;;;5057792;28;20040;-71
2023/04/17 02:31:21;;;;;;;15.07;10.73;;;;;;;;;;5069500;28;20492;-68
2023/04/17 02:33:47;;;;;;;15.02;11.02;;;;;;;;;;5053642;28;20602;-69
2023/04/17 02:36:13;;;;;;;16.13;12.73;;;;;;;;;;5071374;28;20086;-69
2023/04/17 02:38:39;;;;;;;17.98;13.00;;;;;;;;;;5054357;28;20040;-69
2023/04/17 02:41:05;;;;;;;19.00;13.50;;;;;;;;;;5070942;28;20090;-69
2023/04/17 02:43:31;;;;;;;17.92;13.20;;;;;;;;;;5054131;28;20053;-69
2023/04/17 02:45:57;;;;;;;17.30;12.07;;;;;;;;;;5074192;28;20420;-69
2023/04/17 02:48:23;;;;;;;12.32;9.13;;;;;;;;;;5074461;28;20044;-69
2023/04/17 02:50:49;;;;;;;13.52;10.43;;;;;;;;;;5064276;28;20101;-69
2023/04/17 02:53:16;;;;;;;18.50;13.63;;;;;;;;;;5089292;28;20048;-69
2023/04/17 02:55:42;;;;;;;17.27;12.82;;;;;;;;;;5079046;28;20480;-69
2023/04/17 02:58:08;;;;;;;15.48;11.27;;;;;;;;;;5072049;28;20091;-69
2023/04/17 03:00:34;;;;;;;14.35;11.40;;;;;;;;;;5082682;28;20040;-69
2023/04/17 03:03:01;;;;;;;17.45;12.98;;;;;;;;;;5069366;28;20348;-69
2023/04/17 03:05:29;;;;;;;15.88;11.82;;;;;;;;;;5087802;28;20036;-68
2023/04/17 03:07:55;;;;;;;15.93;11.75;;;;;;;;;;5091007;28;20046;-69
2023/04/17 03:10:21;;;;;;;16.10;11.30;;;;;;;;;;5121199;27;20059;-69
2023/04/17 03:12:47;;;;;;;17.65;12.10;;;;;;;;;;5082660;28;20483;-69
2023/04/17 03:15:13;;;;;;;19.35;12.75;;;;;;;;;;5081365;28;20048;-69
2023/04/17 03:17:39;;;;;;;18.67;13.55;;;;;;;;;;5077357;28;20052;-69
2023/04/17 03:20:06;;;;;;;;;;;;;;;;;;5074522;28;20048;-69
2023/04/17 03:22:32;;;;;;;19.85;13.25;;;;;;;;;;5112448;27;19923;-68
2023/04/17 03:24:58;;;;;;;18.98;12.52;;;;;;;;;;5090741;28;20394;-69
2023/04/17 03:27:25;;;;;;;16.88;11.65;;;;;;;;;;5057124;28;20495;-69
2023/04/17 03:29:51;;;;;;;13.98;9.85;;;;;;;;;;5071343;28;20336;-69
2023/04/17 03:32:17;;;;;;;14.45;9.68;;;;;;;;;;5086591;28;20062;-69
2023/04/17 03:34:43;;;;;;;13.18;9.20;;;;;;;;;;5090360;28;20043;-69
2023/04/17 03:37:09;;;;;;;14.43;9.23;;;;;;;;;;5090086;28;20479;-69
2023/04/17 03:39:36;;;;;;;15.15;10.88;;;;;;;;;;5063256;28;20098;-69
2023/04/17 03:42:02;;;;;;;18.17;12.48;;;;;;;;;;5090386;28;20119;-69
2023/04/17 03:44:28;;;;;;;24.13;15.55;;;;;;;;;;5123424;27;20039;-69
2023/04/17 03:46:54;;;;;;;20.73;14.07;;;;;;;;;;5062608;28;20039;-69
2023/04/17 03:49:20;;;;;;;18.63;12.75;;;;;;;;;;5086448;28;20040;-69
2023/04/17 03:51:46;;;;;;;18.17;11.13;;;;;;;;;;5052766;28;20111;-69
2023/04/17 03:54:12;;;;;;;14.10;9.45;;;;;;;;;;5067445;28;20055;-69
2023/04/17 03:56:38;;;;;;;16.20;10.98;;;;;;;;;;5082646;28;20160;-69
2023/04/17 03:59:04;;;;;;;18.52;12.25;;;;;;;;;;5078530;28;20097;-69
2023/04/17 04:01:31;;;;;;;13.90;10.25;;;;;;;;;;5084955;28;20491;-70
2023/04/17 04:03:58;;;;;;;17.30;11.38;;;;;;;;;;5073950;28;20043;-69
2023/04/17 04:06:23;;;;;;;;;;;;;;;;;;5109319;27;20036;-70
2023/04/17 04:08:50;;;;;;;16.38;11.70;;;;;;;;;;5073880;28;20327;-69
2023/04/17 04:11:16;;;;;;;14.50;10.43;;;;;;;;;;5073354;28;20078;-69
2023/04/17 04:13:42;;;;;;;13.63;9.95;;;;;;;;;;5081915;28;20035;-69
2023/04/17 04:16:09;;;;;;;13.20;9.80;;;;;;;;;;5072205;28;20454;-69
2023/04/17 04:18:35;;;;;;;14.57;10.60;;;;;;;;;;5075781;28;20380;-70
2023/04/17 04:21:02;;;;;;;15.18;11.32;;;;;;;;;;5076151;28;20544;-70
2023/04/17 04:23:29;;;;;;;14.15;10.52;;;;;;;;;;5053266;28;20071;-70
2023/04/17 04:25:55;;;;;;;13.68;10.00;;;;;;;;;;5064008;28;20779;-70
2023/04/17 04:28:22;;;;;;;11.18;8.52;;;;;;;;;;5072316;28;20476;-70
2023/04/17 04:30:49;;;;;;;14.45;10.10;;;;;;;;;;5085691;28;20043;-70
2023/04/17 04:33:15;;;;;;;;;;;;;;;;;;5082549;28;20194;-70
2023/04/17 04:35:41;;;;;;;15.90;11.48;;;;;;;;;;5075872;28;20480;-70
2023/04/17 04:38:07;;;;;;;19.38;14.00;;;;;;;;;;5082937;28;20131;-70
2023/04/17 04:40:37;;;;;;;16.50;12.15;;;;;;;;;;5090078;28;20048;-70
2023/04/17 04:43:03;;;;;;;15.50;11.75;;;;;;;;;;5083310;28;20055;-70
2023/04/17 04:45:29;;;;;;;;;;;;;;;;;;5072876;28;20053;-70
2023/04/17 04:47:55;;;;;;;17.77;13.18;;;;;;;;;;5079703;28;19920;-70
2023/04/17 04:50:21;;;;;;;15.32;11.80;;;;;;;;;;5072413;28;20098;-70
2023/04/17 04:52:47;;;;;;;14.38;11.20;;;;;;;;;;5066490;28;20741;-68
2023/04/17 04:55:13;;;;;;;16.08;11.50;;;;;;;;;;5069195;28;20040;-69
2023/04/17 04:57:39;;;;;;;13.15;9.60;;;;;;;;;;5104447;28;20044;-69
2023/04/17 05:00:07;;;;;;;18.05;12.70;;;;;;;;;;5099383;28;20035;-72
2023/04/17 05:02:33;;;;;;;15.98;11.63;;;;;;;;;;5069760;28;20048;-72
2023/04/17 05:04:59;;;;;;;16.00;11.27;;;;;;;;;;5079750;28;20052;-72
2023/04/17 05:07:26;;;;;;;17.58;13.05;;;;;;;;;;5082531;28;20142;-72
2023/04/17 05:09:52;;;;;;;18.35;13.48;;;;;;;;;;5078974;28;20484;-72
2023/04/17 05:12:18;;;;;;;16.77;12.50;;;;;;;;;;5086812;28;20040;-72
2023/04/17 05:14:44;;;;;;;17.45;12.38;;;;;;;;;;5067931;28;20037;-72
2023/04/17 05:17:10;;;;;;;16.75;11.95;;;;;;;;;;5083100;28;20051;-72
2023/04/17 05:19:36;;;;;;;21.75;14.50;;;;;;;;;;5050700;28;20138;-72
2023/04/17 05:22:02;;;;;;;19.88;13.93;;;;;;;;;;5068887;28;20036;-72
2023/04/17 05:24:28;;;;;;;19.42;14.00;;;;;;;;;;5088782;28;20047;-73
2023/04/17 05:26:55;;;;;;;17.17;12.85;;;;;;;;;;5077108;28;20467;-72
2023/04/17 05:29:23;;;;;;;14.82;10.45;;;;;;;;;;5068623;28;20036;-72
2023/04/17 05:31:49;;;;;;;14.82;10.40;;;;;;;;;;5055847;28;20395;-72
2023/04/17 05:34:15;;;;;;;16.77;11.43;;;;;;;;;;5088482;28;20055;-72
2023/04/17 05:36:41;;;;;;;16.35;11.23;;;;;;;;;;5088567;28;20051;-72
2023/04/17 05:39:08;;;;;;;15.95;11.40;;;;;;;;;;5088708;28;20067;-72
2023/04/17 05:41:34;;;;;;;16.77;11.40;;;;;;;;;;5088827;28;20032;-72
2023/04/17 05:44:00;;;;;;;17.10;11.75;;;;;;;;;;5088674;28;20119;-72
2023/04/17 05:46:26;;;;;;;13.13;9.10;;;;;;;;;;5063582;28;20043;-72
2023/04/17 05:48:52;;;;;;;10.60;7.43;;;;;;;;;;5088679;28;20144;-72
2023/04/17 05:51:18;;;;;;;12.50;8.57;;;;;;;;;;5088622;28;20071;-72
2023/04/17 05:53:44;;;;;;;12.55;8.75;;;;;;;;;;5112016;28;20083;-73
2023/04/17 05:56:10;;;;;;;16.38;10.93;;;;;;;;;;5051885;28;20098;-72
2023/04/17 05:58:37;;;;;;;15.38;10.52;;;;;;;;;;5084720;28;20037;-72
2023/04/17 06:01:05;;;;;;;16.58;10.65;;;;;;;;;;5073754;28;20480;-73
2023/04/17 06:03:34;;;;;;;13.82;9.57;;;;;;;;;;5079234;28;20487;-72
2023/04/17 06:06:00;;;;;;;12.95;9.63;;;;;;;;;;5084619;28;20433;-73
2023/04/17 06:08:26;;;;;;;14.30;10.25;;;;;;;;;;5075487;28;20048;-73
2023/04/17 06:10:54;;;;;;;;;;;;;;;;;;5085189;28;20089;-72
2023/04/17 06:13:20;;;;;;;16.50;11.32;;;;;;;;;;5085975;28;19916;-72
2023/04/17 06:15:46;;;;;;;16.80;11.52;;;;;;;;;;5086200;28;20136;-73
2023/04/17 06:18:14;;;;;;;15.23;11.48;;;;;;;;;;5060860;28;20055;-69
2023/04/17 06:20:41;;;;;;;17.40;12.93;;;;;;;;;;5069481;28;20115;-69
2023/04/17 06:23:07;;;;;;;20.50;14.30;;;;;;;;;;5053868;28;20602;-71
2023/04/17 06:25:33;;;;;;;16.38;12.30;;;;;;;;;;5067146;28;20488;-70
2023/04/17 06:27:59;;;;;;;13.43;9.77;;;;;;;;;;5079462;28;20028;-70
2023/04/17 06:30:25;;;;;;;14.07;10.65;;;;;;;;;;5082907;28;20047;-70
2023/04/17 06:32:51;;;;;;;14.88;11.23;;;;;;;;;;5084203;28;20042;-71
2023/04/17 06:35:17;;;;;;;13.07;9.07;;;;;;;;;;5074968;28;20120;-70
2023/04/17 06:37:43;;;;;;;13.95;10.10;;;;;;;;;;5073399;28;20052;-71
2023/04/17 06:40:11;;;;;;;13.10;9.52;;;;;;;;;;5074713;28;20146;-72
2023/04/17 06:42:37;;;;;;;12.73;9.77;;;;;;;;;;5080653;28;20052;-70
2023/04/17 06:45:03;;;;;;;12.93;10.05;;;;;;;;;;5078318;28;20047;-70
2023/04/17 06:47:29;;;;;;;;;;;;;;;;;;5072488;28;20123;-70
2023/04/17 06:49:58;;;;;;;15.93;11.50;;;;;;;;;;5087589;28;20006;-70
2023/04/17 06:52:25;;;;;;;10.27;8.45;;;;;;;;;;5071462;28;20067;-70
2023/04/17 06:54:52;;;;;;;12.00;8.88;;;;;;;;;;5061239;28;20431;-70
2023/04/17 06:57:18;;;;;;;8.90;7.35;;;;;;;;;;5076614;28;20049;-70
2023/04/17 06:59:44;;;;;;;;;;;;;;;;;;5102553;28;20144;-70
2023/04/17 07:02:10;;;;;;;11.73;8.98;;;;;;;;;;5058724;28;20020;-69
2023/04/17 07:04:36;;;;;;;14.23;11.65;;;;;;;;;;5075064;28;20089;-69
2023/04/17 07:07:02;;;;;;;12.60;10.50;;;;;;;;;;5083212;28;20067;-69
2023/04/17 07:09:28;;;;;;;12.88;10.23;;;;;;;;;;5084758;28;20135;-69
2023/04/17 07:11:54;;;;;;;12.27;10.70;;;;;;;;;;5066861;28;20117;-69
2023/04/17 07:14:21;;;;;;;12.85;9.93;;;;;;;;;;5054553;28;20448;-69
2023/04/17 07:16:47;;;;;;;12.07;9.77;;;;;;;;;;5074517;28;20119;-69
2023/04/17 07:19:14;;;;;;;11.65;9.95;;;;;;;;;;5082685;28;20093;-69
2023/04/17 07:21:40;;;;;;;12.80;10.23;;;;;;;;;;5076149;28;20044;-69
2023/04/17 07:24:06;;;;;;;17.17;14.52;;;;;;;;;;5085948;28;20101;-69
2023/04/17 07:26:32;;;;;;;14.45;11.55;;;;;;;;;;5081244;28;20051;-69
2023/04/17 07:28:58;;;;;;;15.02;12.45;;;;;;;;;;5088054;28;20603;-68
2023/04/17 07:31:25;;;;;;;14.98;12.23;;;;;;;;;;5090322;28;20096;-70
2023/04/17 07:33:51;;;;;;;13.23;11.00;;;;;;;;;;5090233;28;20043;-69
2023/04/17 07:36:17;;;;;;;14.25;12.20;;;;;;;;;;5086740;28;20044;-69
2023/04/17 07:38:44;;;;;;;13.90;12.32;;;;;;;;;;5066681;28;20100;-69
2023/04/17 07:41:11;;;;;;;14.40;12.50;;;;;;;;;;5091450;28;20119;-69
2023/04/17 07:43:37;;;;;;;13.25;11.30;;;;;;;;;;5090163;28;20867;-69
2023/04/17 07:46:03;;;;;;;;;;;;;;;;;;5122250;27;20040;-69
2023/04/17 07:48:29;;;;;;;11.70;10.48;;;;;;;;;;5090031;28;19920;-69
2023/04/17 07:50:55;;;;;;;11.60;10.00;;;;;;;;;;5071242;28;20044;-69
2023/04/17 07:53:24;;;;;;;10.02;8.68;;;;;;;;;;5082561;28;20415;-70
2023/04/17 07:55:51;;;;;;;9.77;8.60;;;;;;;;;;5051447;28;20057;-69
2023/04/17 07:58:18;;;;;;;10.85;9.75;;;;;;;;;;5068443;28;20084;-69
2023/04/17 08:00:44;;;;;;;11.50;9.93;;;;;;;;;;5076220;28;20051;-68
2023/04/17 08:03:12;;;;;;;;;;;;;;;;;;5068269;28;20044;-69
2023/04/17 08:05:39;;;;;;;11.15;9.57;;;;;;;;;;5058948;28;19923;-69
2023/04/17 08:08:05;;;;;;;;;;;;;;;;;;5080774;28;20043;-69
2023/04/17 08:10:31;;;;;;;10.50;8.95;;;;;;;;;;5079197;28;20003;-69
2023/04/17 08:12:57;;;;;;;12.90;11.60;;;;;;;;;;5067621;28;20044;-69
2023/04/17 08:15:23;;;;;;;13.65;10.70;;;;;;;;;;5083418;28;20035;-69
2023/04/17 08:17:49;;;;;;;11.50;10.30;;;;;;;;;;5070495;28;20131;-69
2023/04/17 08:20:17;;;;;;;12.20;10.93;;;;;;;;;;5118576;27;20160;-69
2023/04/17 08:22:44;;;;;;;12.27;10.30;;;;;;;;;;5077410;28;20526;-70
2023/04/17 08:25:11;;;;;;;10.95;9.20;;;;;;;;;;5082418;28;20093;-69
2023/04/17 08:27:38;;;;;;;11.85;9.73;;;;;;;;;;5055386;28;20118;-69
2023/04/17 08:30:05;;;;;;;11.57;9.45;;;;;;;;;;5048454;28;20047;-69
2023/04/17 08:32:36;;;;;;;9.40;8.25;;;;;;;;;;5065116;28;20127;-68
2023/04/17 08:35:03;;;;;;;10.07;8.38;;;;;;;;;;5047269;28;20232;-69
2023/04/17 08:37:30;;;;;;;11.18;9.23;;;;;;;;;;5085557;28;20119;-69
2023/04/17 08:39:57;;;;;;;11.82;10.57;;;;;;;;;;5072782;28;20039;-69
2023/04/17 08:42:23;;;;;;;12.90;11.05;;;;;;;;;;5072740;28;20044;-69
2023/04/17 08:44:49;;;;;;;14.65;12.23;;;;;;;;;;5064468;28;20045;-69
2023/04/17 08:47:17;;;;;;;12.05;10.60;;;;;;;;;;5065945;28;20047;-69
2023/04/17 08:49:44;;;;;;;14.68;10.77;;;;;;;;;;5085074;28;20118;-69
2023/04/17 08:52:11;;;;;;;11.60;9.30;;;;;;;;;;5040590;28;20115;-69
2023/04/17 08:54:37;;;;;;;;;;;;;;;;;;5079725;28;20093;-69
2023/04/17 08:57:04;;;;;;;11.88;10.00;;;;;;;;;;5061360;28;19966;-69
2023/04/17 08:59:31;;;;;;;9.63;8.23;;;;;;;;;;5080054;28;20049;-69
2023/04/17 09:02:01;;;;;;;9.90;8.45;;;;;;;;;;5080912;28;20083;-70
2023/04/17 09:04:36;;;;;;;8.77;7.85;;;;;;;;;;5085986;28;20039;-69
2023/04/17 09:07:03;;;;;;;10.38;8.38;;;;;;;;;;5073084;28;20040;-73
2023/04/17 09:09:48;;;;;;;10.82;9.70;;;;;;;;;;5082325;28;20128;-73
2023/04/17 09:12:14;;;;;;;11.43;10.07;;;;;;;;;;5072244;28;20047;-74
2023/04/17 09:14:40;;;;;;;;;;;;;;;;;;5057435;28;20523;-73
2023/04/17 09:17:06;;;;;;;10.20;9.20;;;;;;;;;;5069556;28;19970;-73
2023/04/17 09:19:32;;;;;;;9.82;8.35;;;;;;;;;;5072361;28;20044;-73
2023/04/17 09:22:16;;;;;;;8.43;6.78;;;;;;;;;;5072530;28;20048;-73
2023/04/17 09:24:43;;;;;;;10.55;9.45;;;;;;;;;;5089034;28;20044;-73
2023/04/17 09:27:26;;;;;;;10.50;9.32;;;;;;;;;;5076286;28;20049;-74
2023/04/17 09:29:56;;;;;;;9.95;8.45;;;;;;;;;;5088809;28;20040;-73
2023/04/17 09:32:23;;;;;;;9.80;8.73;;;;;;;;;;5089357;28;20044;-74
2023/04/17 09:34:49;;;;;;;11.45;9.30;;;;;;;;;;5089094;28;20804;-73
2023/04/17 09:37:15;;;;;;;10.60;9.50;;;;;;;;;;5074413;28;20048;-73
2023/04/17 09:39:55;;;;;;;9.65;8.65;;;;;;;;;;5089091;28;20062;-72
2023/04/17 09:42:21;;;;;;;8.77;7.68;;;;;;;;;;5072511;28;20344;-73
2023/04/17 09:44:47;;;;;;;8.65;7.72;;;;;;;;;;5115918;27;20076;-73
2023/04/17 09:47:14;;;;;;;9.80;8.13;;;;;;;;;;5075766;28;20048;-74
2023/04/17 09:49:48;;;;;;;9.32;7.75;;;;;;;;;;5087308;28;20048;-73
2023/04/17 09:52:15;;;;;;;9.35;7.63;;;;;;;;;;5059238;28;20068;-73
2023/04/17 09:54:42;;;;;;;8.93;7.80;;;;;;;;;;5070316;28;20908;-73
2023/04/17 09:57:09;;;;;;;10.20;8.52;;;;;;;;;;5054635;28;20047;-73
2023/04/17 09:59:38;;;;;;;8.25;7.35;;;;;;;;;;5070643;28;20037;-73
2023/04/17 10:02:07;;;;;;;9.38;8.35;;;;;;;;;;5070109;28;20044;-73
2023/04/17 10:04:33;;;;;;;9.52;8.07;;;;;;;;;;5054778;28;20053;-73
2023/04/17 10:07:01;;;;;;;11.70;9.27;;;;;;;;;;5076092;28;20126;-73
2023/04/17 10:09:27;;;;;;;9.73;8.57;;;;;;;;;;5111776;27;20050;-73
2023/04/17 10:11:55;;;;;;;9.35;8.30;;;;;;;;;;5072006;28;20194;-73
2023/04/17 10:14:24;;;;;;;11.80;9.25;;;;;;;;;;5070223;28;20040;-74
2023/04/17 10:16:51;;;;;;;8.65;7.72;;;;;;;;;;5069168;28;20043;-73
2023/04/17 10:19:34;;;;;;;10.52;9.43;;;;;;;;;;5054896;28;20084;-73
2023/04/17 10:22:18;;;;;;;13.13;9.15;;;;;;;;;;5070016;28;20043;-73
2023/04/17 10:24:50;;;;;;;15.07;10.90;;;;;;;;;;5069635;28;20151;-74
2023/04/17 10:27:26;;;;;;;11.88;9.18;;;;;;;;;;5068521;28;20084;-73
2023/04/17 10:29:54;;;;;;;9.70;8.70;;;;;;;;;;5063857;28;20076;-74
2023/04/17 10:32:24;;;;;;;11.30;9.73;;;;;;;;;;5070826;28;20433;-74
2023/04/17 10:34:57;;;;;;;11.95;10.15;;;;;;;;;;5069363;28;20445;-73
2023/04/17 10:37:43;;;;;;;11.13;8.90;;;;;;;;;;5069803;28;20036;-73
2023/04/17 10:40:10;;;;;;;10.48;9.27;;;;;;;;;;5070527;28;20047;-73
2023/04/17 10:42:36;;;;;;;10.90;9.18;;;;;;;;;;5056625;28;20039;-73
2023/04/17 10:45:05;;;;;;;;;;;;;;;;;;5071345;28;20036;-73
2023/04/17 10:47:32;;;;;;;13.55;10.40;;;;;;;;;;5068751;28;19916;-72
2023/04/17 10:49:58;;;;;;;12.85;9.25;;;;;;;;;;5107159;27;20064;-72
2023/04/17 10:52:37;;;;;;;11.98;10.65;;;;;;;;;;5068632;28;20152;-73
2023/04/17 10:55:08;;;;;;;12.60;11.10;;;;;;;;;;5064882;28;20052;-73
2023/04/17 10:57:49;;;;;;;12.15;10.23;;;;;;;;;;5071832;28;20032;-73
2023/04/17 11:00:17;;;;;;;12.43;10.27;;;;;;;;;;5067600;28;20139;-73
2023/04/17 11:02:52;;;;;;;13.30;10.20;;;;;;;;;;5085735;28;20044;-73
2023/04/17 11:05:18;;;;;;;;;;;;;;;;;;5083654;28;20136;-73
2023/04/17 11:07:49;;;;;;;12.43;10.48;;;;;;;;;;5121636;27;20345;-73
2023/04/17 11:10:16;;;;;;;12.15;9.85;;;;;;;;;;5075330;28;20042;-73
2023/04/17 11:12:45;;;;;;;13.68;10.57;;;;;;;;;;5069074;28;20037;-72
2023/04/17 11:15:11;;;;;;;11.55;10.23;;;;;;;;;;5071366;28;20101;-73
2023/04/17 11:17:37;;;;;;;;;;;;;;;;;;5072524;28;20039;-73
2023/04/17 11:20:03;;;;;;;15.63;12.05;;;;;;;;;;5096132;27;20275;-73
2023/04/17 11:22:32;;;;;;;13.93;11.27;;;;;;;;;;5069070;28;20052;-73
2023/04/17 11:24:59;;;;;;;11.02;9.68;;;;;;;;;;5069810;28;20048;-72
2023/04/17 11:27:25;;;;;;;15.02;10.65;;;;;;;;;;5069244;28;20041;-74
2023/04/17 11:29:51;;;;;;;13.32;10.35;;;;;;;;;;5052609;28;20337;-72
2023/04/17 11:32:17;;;;;;;;;;;;;;;;;;5069917;28;20097;-73
2023/04/17 11:34:43;;;;;;;11.43;9.55;;;;;;;;;;5068849;28;19924;-74
2023/04/17 11:37:13;;;;;;;12.93;10.20;;;;;;;;;;5069850;28;20067;-73
2023/04/17 11:39:41;;;;;;;13.40;10.23;;;;;;;;;;5069913;28;20049;-73
2023/04/17 11:42:07;;;;;;;14.85;11.68;;;;;;;;;;5069999;28;20181;-73
2023/04/17 11:44:33;;;;;;;;;;;;;;;;;;5070175;28;20036;-73
2023/04/17 11:46:59;;;;;;;14.13;10.80;;;;;;;;;;5070378;28;20383;-73
2023/04/17 11:49:26;;;;;;;;;;;;;;;;;;5072028;28;20101;-73
2023/04/17 11:51:52;;;;;;;12.90;10.25;;;;;;;;;;5070954;28;19924;-72
2023/04/17 11:54:28;;;;;;;11.35;8.93;;;;;;;;;;5071449;28;20388;-73
2023/04/17 11:57:05;;;;;;;11.55;9.02;;;;;;;;;;5103812;27;20495;-73
2023/04/17 11:59:31;;;;;;;14.93;10.02;;;;;;;;;;5066196;28;20037;-73
2023/04/17 12:01:59;;;;;;;12.85;10.00;;;;;;;;;;5102704;27;20044;-72
2023/04/17 12:04:26;;;;;;;14.45;10.73;;;;;;;;;;5067399;28;20166;-73
2023/04/17 12:06:52;;;;;;;12.07;9.40;;;;;;;;;;5063683;28;20044;-73
2023/04/17 12:09:23;;;;;;;;;;;;;;;;;;5066271;28;20193;-72
2023/04/17 12:11:50;;;;;;;12.55;10.82;;;;;;;;;;5066313;28;19962;-73
2023/04/17 12:14:16;;;;;;;14.82;11.48;;;;;;;;;;5066823;28;20056;-69
2023/04/17 12:16:42;;;;;;;;;;;;;;;;;;5067991;28;20045;-69
2023/04/17 12:19:09;;;;;;;12.38;10.30;;;;;;;;;;5052646;28;19981;-69
2023/04/17 12:21:35;;;;;;;11.90;10.25;;;;;;;;;;5068995;28;20056;-70
2023/04/17 12:24:01;;;;;;;;;;;;;;;;;;5071822;28;20149;-71
2023/04/17 12:26:27;;;;;;;13.40;10.88;;;;;;;;;;5077107;28;20060;-71
2023/04/17 12:28:56;;;;;;;11.90;10.02;;;;;;;;;;5070634;28;20052;-71
2023/04/17 12:31:22;;;;;;;11.18;8.48;;;;;;;;;;5080125;28;20040;-71
2023/04/17 12:33:48;;;;;;;;;;;;;;;;;;5068597;28;20063;-71
2023/04/17 12:36:15;;;;;;;11.33;9.67;;;;;;;;;;5075031;28;19920;-71
2023/04/17 12:38:41;;;;;;;10.63;8.80;;;;;;;;;;5076174;28;20067;-72
2023/04/17 12:41:08;;;;;;;15.13;9.68;;;;;;;;;;5068862;28;20042;-71
2023/04/17 12:43:34;;;;;;;10.15;8.43;;;;;;;;;;5068708;28;20070;-71
2023/04/17 12:46:00;;;;;;;;;;;;;;;;;;5069466;28;20055;-71
2023/04/17 12:48:26;;;;;;;11.20;8.75;;;;;;;;;;5073742;28;19966;-71
2023/04/17 12:50:53;;;;;;;;;;;;;;;;;;5078032;28;20059;-71
2023/04/17 12:53:19;;;;;;;10.98;8.25;;;;;;;;;;5068448;28;20019;-71
2023/04/17 12:55:45;;;;;;;12.52;9.20;;;;;;;;;;5078348;28;20048;-71
2023/04/17 12:58:11;;;;;;;;;;;;;;;;;;5073456;28;20060;-71
2023/04/17 13:00:38;;;;;;;9.43;8.18;;;;;;;;;;5076396;28;19916;-71
2023/04/17 13:03:05;;;;;;;8.93;7.88;;;;;;;;;;5074852;28;20049;-71
2023/04/17 13:05:31;;;;;;;9.50;8.45;;;;;;;;;;5068697;28;20480;-70
2023/04/17 13:07:57;;;;;;;11.00;9.50;;;;;;;;;;5068575;28;20036;-70
2023/04/17 13:10:24;;;;;;;10.02;7.65;;;;;;;;;;5072259;28;20040;-70
2023/04/17 13:12:50;;;;;;;9.10;7.93;;;;;;;;;;5078678;28;20392;-70
2023/04/17 13:15:16;;;;;;;;;;;;;;;;;;5085181;28;20036;-70
2023/04/17 13:17:42;;;;;;;9.15;7.53;;;;;;;;;;5081965;28;20440;-70
2023/04/17 13:20:09;;;;;;;8.77;6.75;;;;;;;;;;5072444;28;20506;-70
2023/04/17 13:22:35;;;;;;;10.20;7.68;;;;;;;;;;5072398;28;20079;-70
2023/04/17 13:25:04;;;;;;;11.93;8.00;;;;;;;;;;5084802;28;20496;-70
2023/04/17 13:27:31;;;;;;;10.07;8.57;;;;;;;;;;5073388;28;20513;-70
2023/04/17 13:29:57;;;;;;;9.82;8.07;;;;;;;;;;5072409;28;20044;-70
2023/04/17 13:32:23;;;;;;;;;;;;;;;;;;5069969;28;20127;-70
2023/04/17 13:34:49;;;;;;;9.23;8.13;;;;;;;;;;5072374;28;20058;-70
2023/04/17 13:37:15;;;;;;;;;;;;;;;;;;5072209;28;20051;-70
2023/04/17 13:39:41;;;;;;;9.77;7.85;;;;;;;;;;5055489;28;20391;-70
2023/04/17 13:42:07;;;;;;;6.80;6.10;;;;;;;;;;5085130;28;20495;-70
2023/04/17 13:44:33;;;;;;;8.52;7.60;;;;;;;;;;5072643;28;20055;-70
2023/04/17 13:46:59;;;;;;;;;;;;;;;;;;5106226;28;20040;-71
2023/04/17 13:49:26;;;;;;;10.43;8.03;;;;;;;;;;5085625;28;19922;-71
2023/04/17 13:51:52;;;;;;;9.43;7.88;;;;;;;;;;5086217;28;20048;-71
2023/04/17 13:54:18;;;;;;;8.45;7.38;;;;;;;;;;5083749;28;20051;-71
2023/04/17 13:56:44;;;;;;;;;;;;;;;;;;5074569;28;20124;-71
2023/04/17 13:59:10;;;;;;;11.70;7.90;;;;;;;;;;5071665;28;19952;-71
2023/04/17 14:01:37;;;;;;;9.10;7.65;;;;;;;;;;5073558;28;20403;-71
2023/04/17 14:04:03;;;;;;;;;;;;;;;;;;5067516;28;20523;-71
2023/04/17 14:06:30;;;;;;;9.70;7.70;;;;;;;;;;5071749;28;19964;-71
2023/04/17 14:08:56;;;;;;;8.38;7.20;;;;;;;;;;5055082;28;20044;-71
2023/04/17 14:11:23;;;;;;;;;;;;;;;;;;5105818;28;20147;-71
2023/04/17 14:13:49;;;;;;;7.73;6.70;;;;;;;;;;5085649;28;20429;-71
2023/04/17 14:16:17;;;;;;;8.98;7.57;;;;;;;;;;5054778;28;20286;-71
2023/04/17 14:18:45;;;;;;;10.93;7.57;;;;;;;;;;5069174;28;20048;-71
2023/04/17 14:21:11;;;;;;;8.98;7.30;;;;;;;;;;5054677;28;20044;-71
2023/04/17 14:23:37;;;;;;;8.55;7.07;;;;;;;;;;5054690;28;20105;-71
2023/04/17 14:26:04;;;;;;;;;;;;;;;;;;5055372;28;20044;-71
2023/04/17 14:28:30;;;;;;;9.27;7.22;;;;;;;;;;5070710;28;20013;-71
2023/04/17 14:30:56;;;;;;;;;;;;;;;;;;5068592;28;20480;-71
2023/04/17 14:33:22;;;;;;;10.52;7.00;;;;;;;;;;5065764;28;19923;-71